Aérodrome :
LOGIN :

S'inscrire | Disclaimer

   EN    FR    IT 

 










Légende :    VFR   VFR Marginal   IFR   IFR Intensif   IFR Très Intensif
Visi : 
Plafond : 
>= 8 km
>= 3000ft
5 à 8 km
1000 à 3000 ft
1500m à 5 km
500 à 1000 ft
800 à 1500m
200 à 500 ft
< 800m
< 200 ft
Symboles :   Orages  Brouillard  Fortes neiges  Fortes précipitations  Vent > 20 kt
SIGMETs :   Divers  Orages  Givrage  Turbulence  Onde Orograph.  Cendres Volcan.







- Altitude de l'aérodrome : 325 ft
- Code IATA : BES
- Voir les cartes d'approche


LFRB - Brest

DERNIER METAR :
  • 271300Z AUTO 32010KT 9999 4700 FEW025 BKN039 BKN240 15/09 Q1016 NOSIG

METARs EXPIRÉS :
  • 271230Z AUTO 32011KT 290V350 9999 FEW025 SCT034 BKN250 16/10 Q1016 NOSIG
  • 271200Z AUTO 31009KT 270V350 9999 SCT026 BKN035 BKN041 15/09 Q1016 NOSIG
  • 271130Z AUTO 32010KT 290V350 9999 SCT024 SCT029 BKN038 16/09 Q1017 NOSIG
  • 271100Z AUTO 32010KT 9999 SCT024 BKN035 16/10 Q1017 TEMPO SHRA BKN015TCU
  • 271030Z AUTO 31009KT 270V340 9999 BKN023 BKN028 BKN035 15/09 Q1017 TEMPO SHRA BKN015TCU

TAF TAF LFRB
Valide du 27 à 12h jusqu'au 28 à 18h UTC


271100Z 2712/2818 32010KT 9999 SCT025 BKN030
TEMPO 2800/2812 4000 SHRA SCT015TCU BKN020
ATIS : +33 2 98 32 02 71
Pas de NOTAMs connus pour ce terrain.



MET'MAP, la Météo Aéronautique d'un coup d'oeil ! - Copyright ORBIFLY Décembre 2007 - Disclaimer

ORBIFLY MET'MAP TEAM :

Programmation & Développement : Alexandra Zaïnal
Conception & Développement : Baudouin d'Aumeries
Co-Programmation & Développement : Marc-Olivier Méhu
Soutien technique & logistique : Manuel Goepfert

Contact : metmap@orbifly.com




SOURCES & CREDITS :

   NOAA